createdAt,value
2022-11-17T00:00:54.862Z,68.11
2022-11-17T00:01:54.908Z,68.65
2022-11-17T00:02:54.895Z,70.74
2022-11-17T00:03:54.838Z,69.36
2022-11-17T00:04:54.820Z,67.31
2022-11-17T00:05:54.815Z,65.51
2022-11-17T00:06:54.871Z,69.68
2022-11-17T00:07:54.796Z,67.05
2022-11-17T00:08:54.787Z,67.58
2022-11-17T00:09:54.782Z,72.00
2022-11-17T00:10:54.769Z,70.52
2022-11-17T00:11:54.773Z,69.79
2022-11-17T00:12:54.757Z,70.38
2022-11-17T00:13:54.737Z,71.49
2022-11-17T00:14:55.736Z,69.18
2022-11-17T00:15:54.730Z,70.49
2022-11-17T00:16:54.728Z,71.77
2022-11-17T00:17:54.710Z,69.75
2022-11-17T00:18:54.700Z,69.44
2022-11-17T00:19:54.691Z,69.90
2022-11-17T00:20:54.680Z,68.58
2022-11-17T00:21:54.682Z,69.67
2022-11-17T00:22:54.662Z,67.29
2022-11-17T00:23:54.654Z,69.07
2022-11-17T00:24:54.643Z,66.04
2022-11-17T00:25:54.636Z,70.10
2022-11-17T00:26:54.637Z,71.12
2022-11-17T00:27:54.618Z,68.21
2022-11-17T00:28:54.644Z,68.39
2022-11-17T00:29:54.596Z,64.78
2022-11-17T00:30:54.587Z,67.06
2022-11-17T00:31:54.593Z,66.95
2022-11-17T00:32:54.571Z,68.19
2022-11-17T00:33:54.562Z,67.37
2022-11-17T00:34:54.552Z,68.92
2022-11-17T00:35:54.548Z,67.51
2022-11-17T00:36:54.548Z,67.93
2022-11-17T00:37:54.528Z,63.59
2022-11-17T00:38:54.518Z,68.92
2022-11-17T00:40:00.373Z,70.63
2022-11-17T00:40:56.499Z,70.88
2022-11-17T00:41:54.503Z,67.43
2022-11-17T00:42:54.485Z,68.00
2022-11-17T00:43:54.480Z,68.22
2022-11-17T00:44:54.467Z,66.84
2022-11-17T00:45:54.455Z,69.24
2022-11-17T00:46:54.453Z,62.60
2022-11-17T00:47:54.437Z,66.80
2022-11-17T00:48:54.427Z,69.75
2022-11-17T00:49:54.419Z,68.09
2022-11-17T00:50:54.415Z,69.42
2022-11-17T00:51:54.412Z,71.14
2022-11-17T00:52:54.394Z,70.52
2022-11-17T00:53:54.385Z,68.81
2022-11-17T00:54:54.371Z,69.71
2022-11-17T00:55:54.369Z,69.10
2022-11-17T00:56:54.372Z,67.86
2022-11-17T00:57:54.349Z,68.25
2022-11-17T00:58:54.344Z,69.74
2022-11-17T00:59:54.326Z,67.65
2022-11-17T01:00:54.321Z,63.70
2022-11-17T01:01:54.379Z,73.17
2022-11-17T01:02:54.306Z,73.11
2022-11-17T01:03:54.290Z,67.40
2022-11-17T01:04:54.284Z,70.30
2022-11-17T01:05:54.267Z,69.16
2022-11-17T01:06:54.352Z,68.35
2022-11-17T01:07:54.254Z,69.78
2022-11-17T01:08:54.243Z,67.76
2022-11-17T01:09:54.234Z,68.59
2022-11-17T01:10:54.243Z,69.81
2022-11-17T01:11:54.319Z,69.61
2022-11-17T01:12:54.221Z,68.76
2022-11-17T01:13:54.206Z,68.86
2022-11-17T01:14:54.200Z,69.21
2022-11-17T01:15:54.219Z,69.64
2022-11-17T01:16:54.180Z,67.79
2022-11-17T01:17:54.167Z,66.04
2022-11-17T01:18:54.165Z,64.08
2022-11-17T01:19:54.148Z,69.36
2022-11-17T01:20:54.140Z,68.64
2022-11-17T01:21:54.141Z,68.40
2022-11-17T01:22:54.119Z,70.70
2022-11-17T01:23:54.112Z,68.84
2022-11-17T01:24:54.101Z,69.68
2022-11-17T01:25:54.088Z,69.29
2022-11-17T01:26:54.094Z,70.76
2022-11-17T01:27:54.075Z,70.65
2022-11-17T01:28:54.065Z,71.77
2022-11-17T01:29:54.058Z,69.80
2022-11-17T01:30:54.044Z,71.71
2022-11-17T01:31:54.050Z,69.03
2022-11-17T01:32:54.029Z,71.31
2022-11-17T01:33:54.015Z,70.73
2022-11-17T01:34:54.006Z,66.66
2022-11-17T01:35:54.003Z,68.44
2022-11-17T01:36:54.004Z,69.23
2022-11-17T01:37:53.983Z,68.87
2022-11-17T01:38:53.975Z,72.37
2022-11-17T01:39:53.966Z,71.03
2022-11-17T01:40:53.951Z,72.75
2022-11-17T01:41:53.953Z,65.99
2022-11-17T01:42:53.938Z,72.90
2022-11-17T01:43:53.928Z,68.95
2022-11-17T01:44:53.914Z,65.70
2022-11-17T01:45:53.905Z,67.19
2022-11-17T01:46:59.695Z,66.49
2022-11-17T01:47:55.895Z,69.32
2022-11-17T01:48:53.881Z,69.97
2022-11-17T01:49:53.871Z,73.17
2022-11-17T01:50:53.861Z,66.19
2022-11-17T01:51:53.866Z,71.85
2022-11-17T01:52:53.856Z,69.93
2022-11-17T01:53:53.834Z,70.46
2022-11-17T01:54:53.828Z,69.04
2022-11-17T01:55:53.818Z,68.76
2022-11-17T01:56:53.816Z,67.65
2022-11-17T01:57:53.792Z,69.17
2022-11-17T01:58:53.790Z,70.64
2022-11-17T01:59:53.786Z,68.30
2022-11-17T02:00:53.770Z,69.07
2022-11-17T02:01:53.841Z,70.55
2022-11-17T02:02:53.778Z,68.45
2022-11-17T02:03:53.739Z,69.39
2022-11-17T02:04:53.733Z,68.23
2022-11-17T02:05:53.727Z,67.94
2022-11-17T02:06:53.756Z,66.57
2022-11-17T02:07:53.709Z,71.02
2022-11-17T02:08:53.697Z,70.08
2022-11-17T02:09:53.687Z,68.22
2022-11-17T02:10:53.675Z,65.90
2022-11-17T02:11:53.676Z,70.84
2022-11-17T02:12:53.659Z,70.81
2022-11-17T02:13:53.652Z,69.74
2022-11-17T02:14:53.641Z,69.22
2022-11-17T02:15:53.717Z,68.12
2022-11-17T02:16:53.635Z,68.45
2022-11-17T02:17:53.614Z,67.10
2022-11-17T02:18:53.600Z,68.39
2022-11-17T02:19:53.593Z,67.15
2022-11-17T02:20:53.583Z,70.89
2022-11-17T02:21:53.587Z,70.47
2022-11-17T02:22:53.568Z,70.96
2022-11-17T02:23:53.552Z,68.87
2022-11-17T02:24:53.541Z,71.14
2022-11-17T02:25:53.537Z,68.80
2022-11-17T02:26:53.534Z,70.03
2022-11-17T02:27:53.512Z,67.87
2022-11-17T02:28:53.503Z,67.06
2022-11-17T02:29:53.492Z,68.33
2022-11-17T02:30:53.485Z,68.66
2022-11-17T02:31:53.768Z,70.87
2022-11-17T02:32:53.468Z,71.75
2022-11-17T02:33:53.456Z,72.38
2022-11-17T02:34:53.443Z,69.37
2022-11-17T02:35:53.442Z,69.18
2022-11-17T02:36:53.448Z,69.89
2022-11-17T02:37:53.420Z,72.63
2022-11-17T02:38:53.410Z,70.36
2022-11-17T02:39:53.407Z,70.17
2022-11-17T02:40:53.392Z,70.49
2022-11-17T02:41:53.396Z,63.31
2022-11-17T02:42:53.373Z,67.83
2022-11-17T02:43:53.357Z,72.88
2022-11-17T02:44:53.352Z,71.69
2022-11-17T02:45:53.343Z,72.21
2022-11-17T02:46:53.332Z,71.88
2022-11-17T02:47:53.346Z,70.93
2022-11-17T02:48:53.323Z,72.87
2022-11-17T02:49:53.306Z,72.15
2022-11-17T02:50:53.295Z,69.86
2022-11-17T02:51:53.279Z,73.05
2022-11-17T02:52:53.290Z,71.28
2022-11-17T02:53:53.264Z,72.71
2022-11-17T02:54:53.252Z,71.02
2022-11-17T02:55:53.245Z,66.96
2022-11-17T02:56:53.236Z,72.36
2022-11-17T02:57:53.244Z,68.73
2022-11-17T02:58:53.220Z,72.48
2022-11-17T02:59:53.206Z,70.28
2022-11-17T03:00:53.203Z,71.65
2022-11-17T03:01:53.250Z,73.40
2022-11-17T03:02:53.192Z,73.54
2022-11-17T03:03:53.253Z,70.55
2022-11-17T03:04:53.162Z,68.92
2022-11-17T03:05:53.147Z,70.69
2022-11-17T03:06:53.149Z,69.54
2022-11-17T03:07:53.138Z,73.30
2022-11-17T03:08:53.120Z,71.25
2022-11-17T03:09:53.110Z,68.61
2022-11-17T03:10:53.100Z,70.81
2022-11-17T03:11:53.087Z,71.29
2022-11-17T03:12:53.091Z,72.58
2022-11-17T03:13:53.070Z,71.55
2022-11-17T03:14:53.059Z,70.27
2022-11-17T03:15:53.049Z,66.10
2022-11-17T03:16:53.058Z,71.69
2022-11-17T03:17:53.043Z,71.51
2022-11-17T03:18:53.025Z,71.36
2022-11-17T03:19:53.015Z,72.82
2022-11-17T03:20:53.004Z,69.38
2022-11-17T03:21:52.997Z,72.09
2022-11-17T03:22:52.992Z,71.22
2022-11-17T03:23:52.975Z,72.92
2022-11-17T03:24:52.969Z,71.77
2022-11-17T03:25:52.955Z,69.05
2022-11-17T03:26:52.946Z,71.76
2022-11-17T03:27:52.950Z,72.63
2022-11-17T03:28:52.928Z,70.58
2022-11-17T03:29:52.915Z,69.69
2022-11-17T03:30:52.907Z,71.85
2022-11-17T03:31:52.898Z,73.13
2022-11-17T03:32:52.898Z,74.40
2022-11-17T03:33:52.878Z,67.88
2022-11-17T03:34:52.867Z,72.32
2022-11-17T03:35:52.858Z,72.59
2022-11-17T03:36:52.850Z,74.29
2022-11-17T03:37:52.852Z,72.62
2022-11-17T03:38:52.833Z,72.52
2022-11-17T03:39:52.821Z,73.12
2022-11-17T03:40:52.810Z,74.69
2022-11-17T03:41:52.799Z,72.31
2022-11-17T03:42:52.804Z,72.59
2022-11-17T03:43:52.783Z,70.35
2022-11-17T03:44:52.775Z,70.21
2022-11-17T03:45:52.767Z,72.10
2022-11-17T03:46:52.759Z,74.46
2022-11-17T03:47:52.758Z,71.67
2022-11-17T03:48:52.733Z,70.49
2022-11-17T03:49:52.725Z,71.06
2022-11-17T03:50:52.717Z,73.64
2022-11-17T03:51:52.790Z,74.25
2022-11-17T03:52:52.707Z,72.49
2022-11-17T03:53:52.688Z,72.48
2022-11-17T03:54:52.678Z,74.83
2022-11-17T03:55:52.672Z,72.05
2022-11-17T03:56:52.662Z,73.31
2022-11-17T03:57:52.664Z,73.82
2022-11-17T03:58:52.646Z,74.04
2022-11-17T03:59:52.636Z,72.19
2022-11-17T04:00:52.627Z,74.27
2022-11-17T04:01:52.656Z,72.52
2022-11-17T04:02:52.616Z,71.47
2022-11-17T04:03:52.599Z,72.54
2022-11-17T04:04:52.589Z,73.56
2022-11-17T04:05:52.576Z,74.38
2022-11-17T04:06:52.629Z,73.11
2022-11-17T04:07:52.713Z,73.37
2022-11-17T04:08:52.550Z,74.81
2022-11-17T04:09:52.547Z,74.01
2022-11-17T04:10:52.534Z,75.57
2022-11-17T04:11:52.532Z,74.78
2022-11-17T04:12:52.527Z,73.74
2022-11-17T04:13:52.507Z,74.28
2022-11-17T04:14:52.500Z,73.34
2022-11-17T04:15:52.508Z,73.99
2022-11-17T04:16:52.516Z,72.77
2022-11-17T04:17:52.495Z,72.78
2022-11-17T04:18:58.545Z,70.61
2022-11-17T04:19:53.453Z,73.72
2022-11-17T04:20:52.447Z,74.06
2022-11-17T04:21:52.440Z,74.04
2022-11-17T04:22:52.440Z,74.22
2022-11-17T04:23:52.506Z,74.16
2022-11-17T04:24:52.418Z,73.08
2022-11-17T04:25:52.405Z,73.76
2022-11-17T04:26:52.390Z,74.69
2022-11-17T04:27:52.394Z,73.74
2022-11-17T04:28:52.373Z,75.71
2022-11-17T04:29:52.363Z,75.04
2022-11-17T04:30:52.357Z,76.46
2022-11-17T04:31:52.344Z,74.93
2022-11-17T04:32:52.345Z,74.43
2022-11-17T04:33:52.340Z,75.28
2022-11-17T04:34:52.314Z,75.81
2022-11-17T04:35:52.308Z,74.29
2022-11-17T04:36:52.310Z,74.44
2022-11-17T04:37:52.298Z,75.26
2022-11-17T04:38:52.277Z,76.37
2022-11-17T04:39:52.357Z,74.64
2022-11-17T04:40:52.265Z,74.87
2022-11-17T04:41:52.259Z,72.28
2022-11-17T04:42:52.266Z,74.87
2022-11-17T04:43:52.236Z,76.75
2022-11-17T04:44:52.225Z,76.70
2022-11-17T04:45:52.214Z,73.92
2022-11-17T04:46:52.208Z,74.14
2022-11-17T04:47:52.212Z,76.09
2022-11-17T04:48:52.189Z,76.34
2022-11-17T04:49:52.191Z,75.21
2022-11-17T04:50:52.172Z,74.11
2022-11-17T04:51:52.162Z,73.50
2022-11-17T04:52:52.159Z,77.55
2022-11-17T04:53:52.142Z,74.19
2022-11-17T04:54:52.133Z,73.76
2022-11-17T04:55:52.206Z,75.63
2022-11-17T04:56:52.116Z,74.36
2022-11-17T04:57:52.116Z,74.87
2022-11-17T04:58:52.097Z,76.43
2022-11-17T04:59:52.087Z,74.54
2022-11-17T05:00:52.074Z,75.43
2022-11-17T05:01:52.101Z,75.25
2022-11-17T05:02:52.067Z,76.66
2022-11-17T05:03:52.047Z,75.95
2022-11-17T05:04:52.033Z,77.38
2022-11-17T05:05:52.037Z,75.27
2022-11-17T05:06:52.065Z,75.98
2022-11-17T05:07:52.023Z,74.84
2022-11-17T05:08:52.003Z,73.29
2022-11-17T05:09:51.997Z,76.23
2022-11-17T05:10:52.028Z,77.63
2022-11-17T05:11:52.061Z,76.03
2022-11-17T05:12:51.977Z,75.08
2022-11-17T05:13:51.957Z,76.08
2022-11-17T05:14:51.949Z,76.90
2022-11-17T05:15:51.944Z,76.49
2022-11-17T05:16:51.922Z,76.10
2022-11-17T05:17:52.935Z,76.93
2022-11-17T05:18:51.913Z,77.85
2022-11-17T05:19:51.904Z,77.61
2022-11-17T05:20:51.895Z,76.16
2022-11-17T05:21:51.907Z,77.83
2022-11-17T05:22:51.889Z,77.26
2022-11-17T05:23:51.870Z,74.36
2022-11-17T05:24:51.860Z,75.75
2022-11-17T05:25:51.855Z,74.24
2022-11-17T05:26:51.845Z,74.69
2022-11-17T05:27:51.935Z,76.22
2022-11-17T05:28:51.830Z,77.80
2022-11-17T05:29:51.821Z,77.50
2022-11-17T05:30:51.810Z,73.57
2022-11-17T05:31:51.803Z,76.69
2022-11-17T05:32:51.800Z,76.76
2022-11-17T05:33:51.782Z,77.26
2022-11-17T05:34:51.780Z,76.82
2022-11-17T05:35:51.763Z,77.63
2022-11-17T05:36:51.755Z,75.59
2022-11-17T05:37:51.760Z,77.49
2022-11-17T05:38:51.736Z,77.84
2022-11-17T05:39:51.730Z,74.84
2022-11-17T05:40:51.720Z,76.17
2022-11-17T05:41:51.714Z,76.15
2022-11-17T05:42:56.837Z,76.13
2022-11-17T05:43:53.687Z,75.26
2022-11-17T05:44:51.676Z,76.75
2022-11-17T05:45:51.671Z,75.24
2022-11-17T05:46:51.664Z,75.50
2022-11-17T05:47:51.655Z,78.25
2022-11-17T05:48:51.655Z,76.81
2022-11-17T05:49:51.638Z,77.18
2022-11-17T05:50:51.624Z,76.50
2022-11-17T05:51:53.081Z,78.44
2022-11-17T05:52:52.617Z,78.42
2022-11-17T05:53:51.600Z,77.57
2022-11-17T05:54:51.590Z,78.21
2022-11-17T05:55:51.581Z,76.02
2022-11-17T05:56:51.574Z,77.58
2022-11-17T05:57:51.562Z,78.08
2022-11-17T05:58:51.570Z,77.43
2022-11-17T05:59:51.549Z,77.14
2022-11-17T06:00:51.547Z,74.99
2022-11-17T06:01:51.529Z,77.96
2022-11-17T06:02:51.536Z,78.30
2022-11-17T06:03:51.581Z,77.14
2022-11-17T06:04:51.504Z,74.09
2022-11-17T06:05:51.495Z,78.42
2022-11-17T06:06:51.507Z,78.53
2022-11-17T06:07:51.484Z,78.21
2022-11-17T06:08:51.480Z,77.19
2022-11-17T06:09:51.457Z,77.36
2022-11-17T06:10:51.449Z,77.54
2022-11-17T06:11:51.443Z,77.93
2022-11-17T06:12:51.434Z,74.38
2022-11-17T06:13:51.550Z,76.64
2022-11-17T06:14:51.415Z,74.56
2022-11-17T06:15:51.489Z,74.09
2022-11-17T06:16:51.396Z,75.13
2022-11-17T06:17:51.394Z,74.46
2022-11-17T06:18:51.388Z,75.43
2022-11-17T06:19:51.372Z,75.55
2022-11-17T06:20:51.362Z,76.24
2022-11-17T06:22:11.029Z,75.73
2022-11-17T06:22:53.367Z,73.03
2022-11-17T06:23:51.342Z,75.21
2022-11-17T06:24:51.322Z,76.66
2022-11-17T06:25:51.316Z,77.13
2022-11-17T06:26:51.308Z,77.16
2022-11-17T06:27:51.294Z,77.10
2022-11-17T06:28:51.311Z,76.58
2022-11-17T06:29:51.282Z,75.21
2022-11-17T06:30:51.273Z,75.64
2022-11-17T06:31:51.357Z,75.80
2022-11-17T06:32:51.253Z,76.12
2022-11-17T06:33:51.308Z,75.97
2022-11-17T06:34:55.751Z,77.98
2022-11-17T06:35:53.240Z,74.41
2022-11-17T06:36:51.217Z,75.40
2022-11-17T06:37:51.202Z,76.50
2022-11-17T06:38:51.209Z,74.88
2022-11-17T06:39:51.193Z,74.39
2022-11-17T06:40:51.181Z,74.90
2022-11-17T06:41:51.172Z,73.72
2022-11-17T06:42:51.161Z,73.02
2022-11-17T06:43:51.162Z,72.80
2022-11-17T06:44:51.146Z,71.39
2022-11-17T06:45:51.133Z,72.31
2022-11-17T06:46:51.128Z,72.02
2022-11-17T06:47:51.210Z,74.88
2022-11-17T06:48:51.121Z,74.57
2022-11-17T06:49:51.102Z,75.83
2022-11-17T06:50:51.087Z,76.31
2022-11-17T06:51:51.078Z,73.41
2022-11-17T06:52:51.071Z,75.41
2022-11-17T06:53:51.074Z,75.42
2022-11-17T06:54:51.055Z,76.89
2022-11-17T06:55:51.044Z,71.50
2022-11-17T06:56:51.048Z,75.70
2022-11-17T06:57:53.605Z,75.20
2022-11-17T06:58:52.027Z,75.62
2022-11-17T06:59:51.005Z,75.99
2022-11-17T07:00:51.074Z,75.83
2022-11-17T07:01:50.997Z,76.34
2022-11-17T07:02:50.979Z,76.92
2022-11-17T07:03:51.063Z,77.91
2022-11-17T07:04:50.962Z,75.91
2022-11-17T07:05:50.952Z,74.64
2022-11-17T07:06:51.019Z,75.39
2022-11-17T07:07:50.934Z,74.18
2022-11-17T07:08:50.936Z,71.44
2022-11-17T07:09:50.920Z,72.93
2022-11-17T07:10:50.903Z,72.86
2022-11-17T07:11:50.900Z,70.90
2022-11-17T07:12:50.886Z,73.30
2022-11-17T07:13:50.888Z,73.32
2022-11-17T07:14:50.868Z,72.29
2022-11-17T07:15:50.857Z,74.12
2022-11-17T07:16:50.847Z,70.75
2022-11-17T07:17:50.842Z,73.70
2022-11-17T07:18:50.835Z,73.98
2022-11-17T07:19:50.907Z,73.76
2022-11-17T07:20:50.812Z,70.91
2022-11-17T07:21:50.800Z,73.65
2022-11-17T07:22:50.789Z,76.84
2022-11-17T07:23:50.790Z,76.19
2022-11-17T07:24:50.773Z,75.15
2022-11-17T07:25:50.761Z,73.08
2022-11-17T07:26:50.757Z,77.24
2022-11-17T07:27:50.746Z,74.52
2022-11-17T07:28:50.747Z,73.73
2022-11-17T07:29:50.724Z,76.61
2022-11-17T07:30:50.714Z,75.00
2022-11-17T07:31:50.716Z,73.94
2022-11-17T07:32:54.544Z,74.05
2022-11-17T07:33:51.700Z,73.77
2022-11-17T07:34:50.678Z,73.76
2022-11-17T07:35:50.753Z,74.24
2022-11-17T07:36:50.670Z,72.96
2022-11-17T07:37:50.651Z,72.48
2022-11-17T07:38:50.651Z,70.75
2022-11-17T07:39:50.641Z,72.72
2022-11-17T07:40:50.620Z,71.39
2022-11-17T07:41:50.610Z,71.84
2022-11-17T07:42:50.606Z,72.01
2022-11-17T07:43:50.600Z,74.34
2022-11-17T07:44:50.580Z,72.90
2022-11-17T07:45:50.577Z,72.91
2022-11-17T07:46:50.561Z,73.60
2022-11-17T07:47:50.550Z,73.32
2022-11-17T07:48:50.559Z,74.93
2022-11-17T07:49:50.533Z,72.79
2022-11-17T07:50:50.523Z,72.74
2022-11-17T07:51:50.608Z,74.17
2022-11-17T07:52:50.508Z,75.38
2022-11-17T07:53:50.507Z,73.97
2022-11-17T07:54:50.486Z,71.42
2022-11-17T07:55:50.477Z,73.57
2022-11-17T07:56:50.472Z,72.95
2022-11-17T07:57:50.460Z,72.02
2022-11-17T07:58:50.465Z,72.82
2022-11-17T07:59:50.442Z,72.46
2022-11-17T08:00:50.497Z,71.00
2022-11-17T08:01:50.417Z,73.84
2022-11-17T08:02:50.414Z,73.89
2022-11-17T08:03:50.464Z,75.99
2022-11-17T08:04:50.393Z,74.43
2022-11-17T08:05:50.383Z,75.56
2022-11-17T08:06:50.425Z,74.38
2022-11-17T08:07:50.365Z,72.91
2022-11-17T08:08:50.366Z,74.67
2022-11-17T08:09:50.345Z,74.60
2022-11-17T08:10:50.340Z,74.87
2022-11-17T08:11:50.328Z,76.11
2022-11-17T08:12:50.321Z,76.78
2022-11-17T08:13:50.319Z,74.82
2022-11-17T08:14:50.304Z,73.44
2022-11-17T08:15:50.297Z,74.95
2022-11-17T08:16:50.287Z,76.02
2022-11-17T08:17:50.272Z,74.04
2022-11-17T08:18:52.433Z,72.05
2022-11-17T08:19:51.247Z,74.79
2022-11-17T08:20:51.243Z,73.56
2022-11-17T08:21:50.238Z,74.98
2022-11-17T08:22:50.223Z,74.31
2022-11-17T08:23:50.235Z,75.26
2022-11-17T08:24:50.205Z,73.04
2022-11-17T08:25:50.198Z,73.41
2022-11-17T08:26:50.190Z,72.05
2022-11-17T08:27:50.179Z,75.54
2022-11-17T08:28:53.666Z,75.30
2022-11-17T08:29:52.160Z,74.16
2022-11-17T08:30:50.155Z,74.09
2022-11-17T08:31:50.150Z,73.96
2022-11-17T08:32:50.137Z,74.79
2022-11-17T08:33:50.140Z,72.65
2022-11-17T08:34:50.114Z,73.75
2022-11-17T08:35:50.104Z,74.20
2022-11-17T08:36:50.097Z,75.15
2022-11-17T08:37:50.091Z,74.23
2022-11-17T08:38:50.085Z,74.14
2022-11-17T08:39:50.153Z,72.95
2022-11-17T08:40:50.061Z,73.34
2022-11-17T08:41:50.052Z,73.35
2022-11-17T08:42:50.046Z,74.94
2022-11-17T08:43:50.048Z,75.38
2022-11-17T08:44:50.027Z,74.06
2022-11-17T08:45:50.016Z,74.48
2022-11-17T08:46:50.007Z,73.29
2022-11-17T08:47:49.999Z,74.03
2022-11-17T08:48:55.461Z,74.71
2022-11-17T08:49:51.975Z,73.98
2022-11-17T08:50:49.973Z,73.90
2022-11-17T08:51:49.958Z,74.58
2022-11-17T08:52:49.960Z,74.32
2022-11-17T08:53:49.938Z,72.27
2022-11-17T08:54:49.945Z,72.44
2022-11-17T08:55:50.131Z,74.67
2022-11-17T08:56:49.966Z,73.58
2022-11-17T08:57:49.898Z,72.60
2022-11-17T08:58:49.892Z,72.59
2022-11-17T08:59:49.883Z,71.79
2022-11-17T09:00:50.907Z,72.03
2022-11-17T09:01:49.867Z,72.12
2022-11-17T09:02:49.854Z,73.61
2022-11-17T09:03:49.848Z,73.28
2022-11-17T09:04:49.849Z,72.53
2022-11-17T09:05:49.826Z,71.74
2022-11-17T09:06:49.994Z,71.48
2022-11-17T09:07:49.919Z,74.08
2022-11-17T09:08:49.873Z,73.22
2022-11-17T09:09:49.799Z,72.98
2022-11-17T09:10:49.785Z,72.59
2022-11-17T09:11:49.854Z,71.47
2022-11-17T09:12:50.760Z,72.22
2022-11-17T09:13:49.750Z,71.31
2022-11-17T09:14:49.756Z,71.41
2022-11-17T09:15:49.732Z,70.46
2022-11-17T09:16:49.722Z,73.36
2022-11-17T09:17:49.713Z,72.05
2022-11-17T09:18:49.700Z,71.88
2022-11-17T09:19:49.711Z,73.63
2022-11-17T09:20:49.684Z,75.41
2022-11-17T09:21:49.677Z,72.81
2022-11-17T09:22:49.670Z,72.57
2022-11-17T09:23:49.657Z,73.59
2022-11-17T09:24:49.655Z,73.82
2022-11-17T09:25:49.639Z,73.27
2022-11-17T09:26:49.630Z,71.71
2022-11-17T09:27:49.622Z,72.01
2022-11-17T09:28:49.604Z,72.25
2022-11-17T09:29:49.610Z,72.30
2022-11-17T09:30:49.584Z,72.82
2022-11-17T09:31:49.641Z,74.92
2022-11-17T09:32:49.566Z,72.43
2022-11-17T09:33:49.557Z,72.99
2022-11-17T09:34:49.624Z,72.81
2022-11-17T09:35:49.538Z,74.42
2022-11-17T09:36:49.529Z,72.45
2022-11-17T09:37:49.520Z,71.19
2022-11-17T09:38:49.509Z,72.81
2022-11-17T09:39:49.508Z,70.51
2022-11-17T09:40:49.491Z,70.55
2022-11-17T09:41:49.481Z,71.41
2022-11-17T09:42:49.463Z,73.49
2022-11-17T09:43:50.473Z,75.04
2022-11-17T09:44:49.483Z,72.70
2022-11-17T09:45:49.447Z,71.91
2022-11-17T09:46:49.438Z,72.45
2022-11-17T09:47:49.425Z,73.23
2022-11-17T09:48:49.412Z,73.46
2022-11-17T09:49:53.707Z,73.28
2022-11-17T09:50:51.396Z,72.14
2022-11-17T09:51:49.391Z,73.52
2022-11-17T09:52:49.374Z,72.69
2022-11-17T09:53:49.366Z,72.28
2022-11-17T09:54:49.370Z,73.23
2022-11-17T09:55:49.352Z,72.98
2022-11-17T09:56:49.353Z,71.23
2022-11-17T09:57:49.329Z,72.73
2022-11-17T09:58:49.321Z,73.71
2022-11-17T09:59:49.418Z,71.30
2022-11-17T10:00:49.305Z,70.88
2022-11-17T10:01:49.335Z,71.58
2022-11-17T10:02:49.287Z,70.61
2022-11-17T10:03:49.500Z,72.19
2022-11-17T10:04:49.281Z,71.65
2022-11-17T10:05:49.262Z,72.37
2022-11-17T10:06:49.251Z,73.37
2022-11-17T10:07:49.240Z,72.70
2022-11-17T10:08:49.232Z,70.83
2022-11-17T10:09:49.232Z,70.62
2022-11-17T10:10:49.214Z,72.29
2022-11-17T10:11:49.200Z,73.14
2022-11-17T10:12:49.192Z,71.91
2022-11-17T10:13:49.201Z,71.58
2022-11-17T10:14:49.182Z,73.82
2022-11-17T10:15:49.251Z,72.06
2022-11-17T10:16:49.169Z,72.95
2022-11-17T10:17:49.145Z,72.81
2022-11-17T10:18:49.131Z,72.36
2022-11-17T10:19:49.136Z,73.50
2022-11-17T10:20:49.123Z,73.63
2022-11-17T10:21:49.105Z,71.24
2022-11-17T10:22:49.106Z,72.03
2022-11-17T10:23:49.434Z,71.49
2022-11-17T10:24:49.086Z,72.47
2022-11-17T10:25:49.070Z,71.45
2022-11-17T10:26:49.073Z,73.89
2022-11-17T10:27:49.045Z,72.06
2022-11-17T10:28:49.040Z,71.28
2022-11-17T10:29:49.036Z,72.98
2022-11-17T10:30:49.013Z,71.45
2022-11-17T10:31:49.089Z,72.22
2022-11-17T10:32:48.993Z,74.44
2022-11-17T10:33:49.017Z,74.16
2022-11-17T10:34:48.996Z,72.58
2022-11-17T10:35:48.976Z,73.36
2022-11-17T10:36:48.966Z,73.04
2022-11-17T10:37:48.948Z,75.34
2022-11-17T10:38:48.941Z,73.69
2022-11-17T10:39:49.943Z,71.78
2022-11-17T10:40:48.921Z,73.35
2022-11-17T10:41:48.913Z,75.14
2022-11-17T10:42:48.897Z,74.93
2022-11-17T10:43:48.892Z,74.89
2022-11-17T10:44:48.894Z,72.81
2022-11-17T10:45:49.087Z,74.33
2022-11-17T10:46:48.863Z,74.31
2022-11-17T10:47:48.854Z,72.96
2022-11-17T10:48:48.846Z,73.96
2022-11-17T10:49:48.841Z,74.52
2022-11-17T10:50:48.820Z,74.51
2022-11-17T10:51:48.810Z,73.89
2022-11-17T10:52:48.796Z,71.42
2022-11-17T10:53:49.063Z,74.34
2022-11-17T10:54:48.797Z,75.42
2022-11-17T10:55:48.774Z,73.39
2022-11-17T10:56:48.763Z,74.65
2022-11-17T10:57:48.751Z,73.93
2022-11-17T10:58:48.748Z,71.23
2022-11-17T10:59:53.583Z,74.61
2022-11-17T11:00:50.736Z,71.25
2022-11-17T11:01:48.791Z,71.32
2022-11-17T11:02:48.711Z,73.39
2022-11-17T11:03:48.704Z,75.58
2022-11-17T11:04:48.699Z,74.10
2022-11-17T11:05:48.685Z,73.35
2022-11-17T11:06:48.674Z,72.44
2022-11-17T11:07:48.660Z,72.88
2022-11-17T11:08:48.659Z,72.47
2022-11-17T11:09:48.659Z,69.81
2022-11-17T11:10:48.635Z,71.01
2022-11-17T11:11:48.626Z,72.96
2022-11-17T11:12:48.614Z,73.17
2022-11-17T11:13:48.607Z,72.94
2022-11-17T11:14:48.609Z,72.62
2022-11-17T11:15:48.583Z,72.26
2022-11-17T11:16:48.715Z,74.15
2022-11-17T11:17:48.567Z,73.69
2022-11-17T11:18:48.576Z,74.43
2022-11-17T11:19:48.560Z,74.82
2022-11-17T11:20:48.545Z,72.61
2022-11-17T11:21:48.534Z,70.49
2022-11-17T11:22:48.525Z,73.01
2022-11-17T11:23:48.517Z,72.59
2022-11-17T11:24:48.517Z,72.74
2022-11-17T11:25:48.500Z,71.80
2022-11-17T11:26:48.485Z,72.06
2022-11-17T11:27:48.477Z,72.38
2022-11-17T11:28:54.304Z,72.63
2022-11-17T11:29:50.471Z,73.96
2022-11-17T11:30:48.447Z,73.07
2022-11-17T11:31:48.443Z,71.36
2022-11-17T11:32:48.430Z,71.33
2022-11-17T11:33:48.422Z,72.04
2022-11-17T11:34:48.418Z,72.49
2022-11-17T11:35:48.397Z,71.06
2022-11-17T11:36:48.390Z,74.15
2022-11-17T11:37:48.396Z,73.34
2022-11-17T11:38:48.381Z,74.40
2022-11-17T11:39:48.368Z,73.56
2022-11-17T11:40:48.352Z,73.02
2022-11-17T11:41:48.340Z,72.04
2022-11-17T11:42:48.325Z,74.23
2022-11-17T11:43:48.319Z,73.34
2022-11-17T11:44:48.315Z,75.44
2022-11-17T11:45:48.292Z,74.14
2022-11-17T11:46:48.283Z,75.89
2022-11-17T11:47:48.273Z,72.79
2022-11-17T11:48:48.266Z,72.02
2022-11-17T11:49:48.277Z,73.24
2022-11-17T11:50:48.249Z,70.48
2022-11-17T11:51:48.239Z,74.50
2022-11-17T11:52:48.227Z,73.81
2022-11-17T11:53:48.237Z,74.09
2022-11-17T11:54:50.985Z,71.88
2022-11-17T11:55:49.201Z,71.24
2022-11-17T11:56:48.189Z,74.56
2022-11-17T11:57:48.174Z,74.61
2022-11-17T11:58:48.159Z,72.02
2022-11-17T11:59:48.165Z,71.43
2022-11-17T12:00:48.145Z,71.18
2022-11-17T12:01:48.200Z,72.71
2022-11-17T12:02:48.142Z,73.83
2022-11-17T12:03:48.133Z,72.36
2022-11-17T12:04:48.109Z,73.99
2022-11-17T12:05:48.090Z,70.97
2022-11-17T12:06:48.075Z,74.22
2022-11-17T12:07:48.066Z,72.38
2022-11-17T12:08:48.058Z,73.27
2022-11-17T12:09:48.063Z,73.42
2022-11-17T12:10:48.041Z,72.50
2022-11-17T12:11:48.025Z,71.02
2022-11-17T12:12:48.018Z,71.72
2022-11-17T12:13:53.826Z,73.28
2022-11-17T12:14:50.006Z,73.15
2022-11-17T12:15:48.009Z,72.14
2022-11-17T12:16:47.970Z,73.22
2022-11-17T12:17:48.958Z,72.81
2022-11-17T12:18:47.949Z,73.00
2022-11-17T12:19:47.952Z,72.02
2022-11-17T12:20:47.938Z,70.46
2022-11-17T12:21:47.919Z,72.54
2022-11-17T12:22:47.912Z,72.83
2022-11-17T12:23:47.893Z,71.87
2022-11-17T12:24:47.893Z,70.40
2022-11-17T12:25:52.227Z,72.69
2022-11-17T12:26:49.875Z,73.39
2022-11-17T12:27:47.855Z,74.55
2022-11-17T12:28:47.843Z,73.85
2022-11-17T12:29:47.849Z,73.42
2022-11-17T12:30:47.846Z,73.18
2022-11-17T12:31:47.817Z,70.39
2022-11-17T12:32:47.802Z,72.85
2022-11-17T12:33:47.785Z,71.23
2022-11-17T12:34:47.797Z,69.08
2022-11-17T12:35:47.772Z,74.06
2022-11-17T12:36:47.766Z,70.43
2022-11-17T12:37:47.753Z,71.91
2022-11-17T12:38:47.740Z,70.64
2022-11-17T12:39:47.745Z,70.89
2022-11-17T12:40:47.727Z,73.63
2022-11-17T12:41:47.710Z,71.86
2022-11-17T12:42:47.707Z,73.07
2022-11-17T12:43:47.691Z,73.86
2022-11-17T12:44:47.682Z,73.50
2022-11-17T12:45:47.679Z,72.30
2022-11-17T12:46:47.657Z,73.46
2022-11-17T12:48:04.831Z,71.12
2022-11-17T12:48:49.655Z,71.53
2022-11-17T12:49:47.625Z,71.52
2022-11-17T12:50:47.630Z,73.05
2022-11-17T12:51:47.604Z,74.15
2022-11-17T12:52:47.603Z,73.63